createdAt,value
2023-02-19T05:53:31.619Z,27.30
2023-02-19T05:56:07.753Z,27.50
2023-02-19T05:58:45.115Z,27.40
2023-02-19T06:01:23.842Z,27.80
2023-02-19T06:03:59.519Z,27.40
2023-02-19T06:06:35.677Z,27.30
2023-02-19T06:22:07.940Z,26.90
2023-02-19T06:24:43.039Z,27.10
2023-02-19T06:27:19.067Z,26.70
2023-02-19T06:29:56.328Z,26.70
2023-02-19T06:32:32.670Z,26.70
2023-02-19T06:35:08.012Z,26.70
2023-02-19T06:37:43.774Z,26.70
2023-02-19T06:40:19.266Z,26.70
2023-02-19T06:45:32.181Z,26.70
2023-02-19T06:48:08.370Z,26.70
2023-02-19T06:50:43.471Z,26.70
2023-02-19T06:53:19.558Z,26.70
2023-02-19T06:56:02.283Z,26.60
2023-02-19T06:58:38.595Z,26.70
2023-02-19T07:01:17.289Z,26.50
2023-02-19T07:16:59.812Z,26.40
2023-02-19T08:01:14.677Z,26.00
2023-02-19T08:03:50.567Z,25.90
2023-02-19T08:06:27.639Z,26.00
2023-02-19T08:09:02.768Z,25.90
2023-02-19T08:11:54.380Z,26.00
2023-02-19T08:14:31.265Z,25.90
2023-02-19T08:17:07.291Z,25.90
2023-02-19T08:19:44.438Z,25.80
2023-02-19T08:22:20.353Z,25.90
2023-02-19T08:24:55.327Z,25.90
2023-02-19T08:35:18.480Z,25.80
2023-02-19T08:37:54.627Z,25.90
2023-02-19T08:40:30.363Z,25.90
2023-02-19T08:43:09.030Z,25.80
2023-02-19T08:51:05.314Z,25.80
2023-02-19T09:04:03.329Z,25.90
2023-02-19T09:06:40.302Z,25.90
2023-02-19T09:11:51.645Z,25.90
2023-02-19T09:14:26.856Z,25.90
2023-02-19T09:17:01.769Z,25.80
2023-02-19T21:49:50.503Z,26.30
2023-02-19T21:52:28.492Z,26.10
2023-02-19T21:55:04.112Z,26.10
2023-02-19T21:57:40.464Z,26.10
2023-02-19T22:00:16.387Z,26.10
2023-02-19T22:02:51.964Z,26.10
2023-02-19T22:05:29.650Z,26.10
2023-02-19T22:08:05.761Z,26.10
2023-02-19T22:10:42.499Z,26.10
2023-02-19T22:13:17.839Z,26.20
2023-02-19T22:18:28.730Z,26.40
